createdAt,value
2022-11-08T00:00:09.116Z,19.92
2022-11-08T00:01:31.146Z,20.00
2022-11-08T00:02:34.524Z,20.88
2022-11-08T00:03:37.794Z,18.80
2022-11-08T00:04:40.764Z,21.75
2022-11-08T00:06:02.497Z,20.70
2022-11-08T00:07:23.880Z,21.40
2022-11-08T00:08:45.566Z,19.13
2022-11-08T00:10:07.048Z,23.60
2022-11-08T00:11:29.065Z,16.63
2022-11-08T00:12:50.411Z,23.55
2022-11-08T00:13:59.808Z,21.65
2022-11-08T00:15:04.365Z,19.15
2022-11-08T00:16:07.748Z,15.95
2022-11-08T00:17:10.896Z,23.80
2022-11-08T00:18:13.990Z,24.67
2022-11-08T00:19:17.122Z,25.08
2022-11-08T00:20:20.239Z,33.15
2022-11-08T00:21:23.274Z,24.48
2022-11-08T00:22:26.342Z,20.85
2022-11-08T00:23:29.482Z,20.48
2022-11-08T00:24:32.704Z,20.75
2022-11-08T00:25:35.835Z,14.88
2022-11-08T00:26:38.828Z,23.40
2022-11-08T00:27:41.852Z,19.52
2022-11-08T00:28:44.887Z,21.63
2022-11-08T00:29:50.308Z,17.98
2022-11-08T00:30:53.347Z,21.73
2022-11-08T00:31:56.903Z,17.15
2022-11-08T00:32:59.922Z,18.27
2022-11-08T00:34:02.983Z,24.67
2022-11-08T00:35:06.976Z,18.25
2022-11-08T00:36:10.403Z,22.45
2022-11-08T00:37:13.438Z,19.70
2022-11-08T00:38:16.810Z,16.05
2022-11-08T00:39:20.812Z,14.80
2022-11-08T00:40:24.017Z,18.17
2022-11-08T00:41:27.070Z,20.17
2022-11-08T00:42:30.187Z,17.65
2022-11-08T00:43:33.216Z,21.92
2022-11-08T00:44:36.331Z,20.33
2022-11-08T00:45:39.757Z,21.75
2022-11-08T00:46:42.957Z,16.88
2022-11-08T00:47:45.895Z,16.63
2022-11-08T00:48:49.002Z,17.83
2022-11-08T00:49:52.051Z,20.73
2022-11-08T00:50:55.414Z,19.75
2022-11-08T00:51:58.611Z,15.70
2022-11-08T00:53:01.655Z,17.20
2022-11-08T00:54:06.550Z,18.55
2022-11-08T00:55:09.627Z,15.50
2022-11-08T00:56:13.832Z,19.42
2022-11-08T00:57:16.873Z,19.27
2022-11-08T00:58:23.563Z,17.58
2022-11-08T00:59:30.158Z,14.65
2022-11-08T01:00:33.310Z,17.08
2022-11-08T01:01:36.390Z,16.50
2022-11-08T01:02:39.517Z,13.93
2022-11-08T01:03:43.226Z,18.38
2022-11-08T01:04:46.241Z,15.45
2022-11-08T01:05:52.025Z,19.85
2022-11-08T01:06:55.076Z,21.02
2022-11-08T01:07:58.019Z,19.08
2022-11-08T01:09:01.774Z,16.13
2022-11-08T01:10:06.235Z,23.75
2022-11-08T01:11:14.600Z,18.40
2022-11-08T01:12:17.631Z,19.63
2022-11-08T01:13:20.588Z,16.75
2022-11-08T01:14:23.764Z,13.80
2022-11-08T01:15:27.272Z,15.88
2022-11-08T01:16:33.358Z,19.90
2022-11-08T01:17:36.301Z,16.08
2022-11-08T01:18:39.861Z,17.60
2022-11-08T01:19:42.827Z,16.83
2022-11-08T01:20:48.884Z,16.05
2022-11-08T01:21:51.991Z,15.45
2022-11-08T01:22:55.021Z,17.15
2022-11-08T01:23:58.261Z,17.23
2022-11-08T01:25:01.440Z,16.98
2022-11-08T01:26:07.994Z,21.70
2022-11-08T01:27:11.140Z,17.48
2022-11-08T01:28:14.323Z,14.23
2022-11-08T01:29:17.426Z,16.33
2022-11-08T01:30:20.518Z,14.18
2022-11-08T01:31:27.998Z,15.95
2022-11-08T01:32:31.075Z,16.00
2022-11-08T01:33:34.887Z,17.10
2022-11-08T01:34:37.949Z,14.13
2022-11-08T01:35:43.785Z,20.92
2022-11-08T01:36:46.913Z,17.23
2022-11-08T01:37:51.686Z,14.85
2022-11-08T01:38:56.151Z,15.02
2022-11-08T01:39:59.105Z,17.10
2022-11-08T01:41:02.577Z,14.52
2022-11-08T01:42:05.801Z,14.75
2022-11-08T01:43:29.955Z,16.70
2022-11-08T01:44:33.344Z,16.38
2022-11-08T01:46:10.393Z,17.00
2022-11-08T01:47:13.462Z,18.42
2022-11-08T01:48:16.793Z,14.52
2022-11-08T01:49:35.700Z,17.35
2022-11-08T01:50:38.778Z,14.27
2022-11-08T01:52:15.508Z,13.07
2022-11-08T01:53:19.279Z,15.40
2022-11-08T01:54:49.295Z,12.82
2022-11-08T01:55:52.853Z,13.45
2022-11-08T01:56:57.609Z,14.90
2022-11-08T01:58:09.861Z,16.58
2022-11-08T01:59:15.725Z,16.88
2022-11-08T02:00:19.205Z,19.05
2022-11-08T02:01:22.360Z,18.70
2022-11-08T02:02:26.374Z,13.77
2022-11-08T02:03:33.593Z,15.07
2022-11-08T02:04:38.827Z,15.30
2022-11-08T02:05:41.958Z,15.68
2022-11-08T02:06:45.070Z,16.70
2022-11-08T02:07:48.202Z,14.13
2022-11-08T02:08:51.517Z,16.17
2022-11-08T02:09:57.537Z,14.18
2022-11-08T02:11:02.537Z,17.08
2022-11-08T02:12:07.814Z,15.90
2022-11-08T02:13:16.294Z,17.05
2022-11-08T02:14:21.416Z,15.07
2022-11-08T02:15:26.291Z,13.32
2022-11-08T02:16:29.318Z,14.13
2022-11-08T02:17:32.456Z,13.38
2022-11-08T02:18:35.503Z,14.75
2022-11-08T02:19:47.854Z,16.52
2022-11-08T02:21:10.537Z,16.35
2022-11-08T02:22:30.886Z,14.73
2022-11-08T02:23:49.627Z,10.80
2022-11-08T02:24:52.836Z,15.93
2022-11-08T02:25:55.952Z,14.90
2022-11-08T02:26:59.479Z,12.55
2022-11-08T02:28:03.341Z,15.90
2022-11-08T02:29:26.058Z,16.38
2022-11-08T02:30:37.000Z,13.77
2022-11-08T02:31:42.698Z,13.88
2022-11-08T02:32:47.215Z,18.35
2022-11-08T02:33:50.507Z,15.60
2022-11-08T02:34:58.568Z,18.75
2022-11-08T02:36:03.980Z,15.82
2022-11-08T02:37:07.595Z,12.38
2022-11-08T02:38:10.762Z,14.00
2022-11-08T02:39:13.786Z,17.15
2022-11-08T02:40:16.771Z,13.18
2022-11-08T02:41:19.997Z,19.17
2022-11-08T02:42:23.291Z,16.50
2022-11-08T02:43:26.707Z,11.70
2022-11-08T02:44:29.943Z,14.50
2022-11-08T02:45:33.073Z,15.68
2022-11-08T02:46:36.177Z,12.68
2022-11-08T02:47:39.286Z,14.02
2022-11-08T02:48:42.421Z,13.38
2022-11-08T02:49:45.485Z,16.80
2022-11-08T02:50:48.523Z,14.30
2022-11-08T02:51:55.070Z,13.77
2022-11-08T02:52:58.280Z,11.18
2022-11-08T02:54:01.435Z,13.68
2022-11-08T02:55:05.055Z,16.88
2022-11-08T02:56:08.320Z,13.25
2022-11-08T02:57:11.343Z,11.52
2022-11-08T02:58:14.763Z,13.30
2022-11-08T02:59:17.902Z,15.77
2022-11-08T03:00:21.059Z,13.80
2022-11-08T03:01:24.232Z,15.10
2022-11-08T03:02:28.194Z,12.45
2022-11-08T03:03:31.436Z,16.00
2022-11-08T03:04:34.482Z,19.67
2022-11-08T03:05:37.694Z,15.18
2022-11-08T03:06:40.935Z,14.80
2022-11-08T03:07:44.601Z,15.02
2022-11-08T03:08:47.769Z,11.57
2022-11-08T03:09:50.748Z,12.38
2022-11-08T03:10:53.813Z,17.25
2022-11-08T03:11:56.956Z,15.70
2022-11-08T03:13:03.515Z,15.85
2022-11-08T03:14:06.480Z,13.95
2022-11-08T03:15:12.103Z,16.05
2022-11-08T03:16:15.109Z,14.10
2022-11-08T03:17:18.181Z,13.85
2022-11-08T03:18:21.258Z,11.77
2022-11-08T03:19:24.340Z,13.00
2022-11-08T03:20:32.433Z,14.98
2022-11-08T03:21:36.823Z,15.60
2022-11-08T03:22:39.849Z,18.75
2022-11-08T03:23:42.889Z,13.10
2022-11-08T03:24:45.980Z,14.77
2022-11-08T03:25:48.976Z,15.82
2022-11-08T03:26:52.236Z,14.45
2022-11-08T03:27:55.405Z,16.08
2022-11-08T03:28:58.478Z,18.05
2022-11-08T03:30:01.712Z,17.33
2022-11-08T03:31:04.819Z,17.17
2022-11-08T03:32:07.980Z,16.80
2022-11-08T03:33:11.062Z,17.40
2022-11-08T03:34:14.113Z,15.00
2022-11-08T03:35:17.410Z,17.80
2022-11-08T03:36:20.524Z,14.48
2022-11-08T03:37:23.599Z,14.48
2022-11-08T03:38:27.193Z,16.45
2022-11-08T03:39:30.227Z,16.20
2022-11-08T03:40:33.296Z,12.50
2022-11-08T03:41:36.436Z,12.80
2022-11-08T03:42:39.525Z,14.43
2022-11-08T03:43:42.511Z,13.68
2022-11-08T03:44:45.509Z,14.77
2022-11-08T03:45:48.539Z,12.48
2022-11-08T03:46:51.531Z,14.63
2022-11-08T03:47:54.826Z,15.43
2022-11-08T03:48:57.856Z,17.90
2022-11-08T03:50:01.075Z,16.40
2022-11-08T03:51:04.347Z,13.73
2022-11-08T03:52:07.416Z,12.13
2022-11-08T03:53:10.400Z,11.57
2022-11-08T03:54:14.164Z,14.43
2022-11-08T03:55:19.708Z,11.13
2022-11-08T03:56:23.883Z,16.52
2022-11-08T03:57:27.087Z,13.60
2022-11-08T03:58:30.168Z,14.25
2022-11-08T03:59:33.298Z,16.25
2022-11-08T04:00:36.403Z,17.45
2022-11-08T04:01:40.276Z,13.93
2022-11-08T04:02:43.854Z,12.77
2022-11-08T04:03:46.917Z,11.43
2022-11-08T04:04:49.881Z,16.30
2022-11-08T04:05:52.999Z,12.85
2022-11-08T04:06:56.003Z,12.00
2022-11-08T04:08:01.178Z,16.13
2022-11-08T04:09:04.285Z,12.45
2022-11-08T04:10:09.751Z,15.27
2022-11-08T04:11:31.575Z,12.30
2022-11-08T04:12:53.586Z,14.70
2022-11-08T04:14:15.294Z,13.38
2022-11-08T04:15:22.630Z,16.15
2022-11-08T04:16:25.634Z,11.70
2022-11-08T04:17:48.733Z,14.82
2022-11-08T04:19:10.449Z,14.70
2022-11-08T04:20:42.849Z,13.25
2022-11-08T04:21:52.555Z,10.65
2022-11-08T04:22:55.565Z,11.85
2022-11-08T04:23:58.605Z,12.07
2022-11-08T04:25:01.671Z,13.20
2022-11-08T04:26:08.087Z,14.40
2022-11-08T04:27:11.318Z,16.17
2022-11-08T04:28:14.573Z,12.65
2022-11-08T04:29:17.718Z,14.93
2022-11-08T04:30:20.836Z,14.88
2022-11-08T04:31:23.916Z,15.90
2022-11-08T04:32:26.905Z,12.77
2022-11-08T04:33:30.286Z,15.20
2022-11-08T04:34:33.294Z,16.02
2022-11-08T04:35:36.414Z,12.90
2022-11-08T04:36:39.449Z,18.67
2022-11-08T04:37:42.730Z,11.98
2022-11-08T04:38:51.927Z,14.93
2022-11-08T04:39:54.917Z,16.10
2022-11-08T04:41:03.645Z,14.80
2022-11-08T04:42:06.761Z,16.63
2022-11-08T04:43:09.815Z,12.52
2022-11-08T04:44:14.596Z,14.07
2022-11-08T04:45:17.769Z,18.00
2022-11-08T04:46:24.661Z,15.98
2022-11-08T04:47:28.655Z,13.68
2022-11-08T04:48:32.228Z,13.45
2022-11-08T04:49:35.175Z,12.27
2022-11-08T04:50:38.243Z,14.73
2022-11-08T04:51:41.452Z,15.40
2022-11-08T04:52:50.833Z,13.82
2022-11-08T04:53:56.713Z,12.95
2022-11-08T04:54:59.733Z,12.77
2022-11-08T04:56:08.968Z,15.45
2022-11-08T04:57:12.349Z,11.40
2022-11-08T04:58:15.771Z,16.00
2022-11-08T04:59:19.471Z,18.20
2022-11-08T05:00:22.693Z,14.82
2022-11-08T05:01:30.221Z,11.63
2022-11-08T05:02:33.639Z,14.32
2022-11-08T05:03:37.371Z,13.38
2022-11-08T05:04:40.399Z,13.95
2022-11-08T05:05:43.499Z,14.10
2022-11-08T05:06:46.535Z,13.48
2022-11-08T05:07:49.633Z,12.85
2022-11-08T05:08:56.718Z,16.48
2022-11-08T05:10:02.357Z,16.27
2022-11-08T05:11:10.744Z,14.02
2022-11-08T05:12:13.769Z,13.65
2022-11-08T05:13:16.755Z,14.77
2022-11-08T05:14:19.960Z,14.27
2022-11-08T05:15:22.987Z,15.45
2022-11-08T05:16:32.216Z,10.40
2022-11-08T05:17:35.284Z,12.50
2022-11-08T05:18:39.993Z,13.75
2022-11-08T05:20:03.419Z,11.93
2022-11-08T05:21:25.254Z,17.48
2022-11-08T05:22:47.073Z,15.23
2022-11-08T05:23:51.716Z,17.10
2022-11-08T05:24:55.125Z,12.85
2022-11-08T05:25:58.287Z,15.07
2022-11-08T05:27:01.273Z,15.40
2022-11-08T05:28:04.426Z,16.13
2022-11-08T05:29:08.020Z,12.77
2022-11-08T05:30:11.435Z,14.65
2022-11-08T05:31:15.452Z,14.43
2022-11-08T05:32:18.506Z,15.52
2022-11-08T05:33:21.722Z,14.98
2022-11-08T05:34:24.795Z,15.63
2022-11-08T05:35:27.949Z,13.48
2022-11-08T05:36:31.018Z,16.88
2022-11-08T05:37:34.046Z,17.80
2022-11-08T05:38:39.520Z,14.43
2022-11-08T05:39:42.690Z,17.90
2022-11-08T05:40:46.391Z,14.10
2022-11-08T05:41:49.419Z,17.30
2022-11-08T05:42:56.331Z,12.85
2022-11-08T05:43:59.447Z,14.45
2022-11-08T05:45:06.680Z,12.93
2022-11-08T05:46:12.983Z,17.80
2022-11-08T05:47:15.981Z,11.75
2022-11-08T05:48:19.417Z,11.75
2022-11-08T05:49:22.699Z,15.77
2022-11-08T05:50:25.817Z,17.00
2022-11-08T05:51:28.947Z,12.40
2022-11-08T05:52:32.031Z,11.52
2022-11-08T05:53:34.987Z,20.10
2022-11-08T05:54:37.956Z,16.75
2022-11-08T05:55:41.301Z,16.63
2022-11-08T05:56:44.268Z,22.00
2022-11-08T05:57:47.300Z,13.60
2022-11-08T05:58:50.352Z,16.63
2022-11-08T05:59:53.437Z,16.10
2022-11-08T06:01:13.890Z,19.27
2022-11-08T06:02:18.418Z,16.23
2022-11-08T06:03:23.672Z,15.88
2022-11-08T06:04:27.211Z,25.45
2022-11-08T06:05:30.286Z,18.15
2022-11-08T06:06:33.355Z,27.05
2022-11-08T06:07:37.179Z,27.38
2022-11-08T06:08:41.875Z,23.65
2022-11-08T06:09:46.193Z,39.45
2022-11-08T06:10:49.224Z,27.42
2022-11-08T06:11:52.323Z,49.30
2022-11-08T06:13:00.940Z,34.05
2022-11-08T06:14:03.945Z,44.30
2022-11-08T06:15:08.722Z,63.65
2022-11-08T06:16:14.521Z,76.95
2022-11-08T06:17:17.500Z,115.85
2022-11-08T06:18:20.589Z,80.40
2022-11-08T06:19:23.746Z,64.00
2022-11-08T06:20:26.721Z,58.15
2022-11-08T06:21:29.701Z,48.75
2022-11-08T06:22:34.000Z,73.65
2022-11-08T06:23:37.049Z,77.63
2022-11-08T06:24:40.158Z,45.42
2022-11-08T06:25:47.387Z,25.35
2022-11-08T06:26:50.702Z,32.05
2022-11-08T06:27:53.781Z,27.98
2022-11-08T06:28:56.724Z,29.10
2022-11-08T06:29:59.820Z,23.38
2022-11-08T06:31:04.328Z,24.27
2022-11-08T06:32:07.372Z,29.80
2022-11-08T06:33:10.571Z,23.70
2022-11-08T06:34:13.833Z,24.63
2022-11-08T06:35:17.044Z,20.73
2022-11-08T06:36:21.533Z,22.95
2022-11-08T06:37:24.598Z,16.02
2022-11-08T06:38:27.703Z,18.83
2022-11-08T06:39:30.800Z,23.80
2022-11-08T06:40:34.133Z,18.48
2022-11-08T06:41:37.222Z,20.20
2022-11-08T06:42:40.197Z,15.95
2022-11-08T06:43:43.207Z,15.15
2022-11-08T06:44:46.285Z,19.80
2022-11-08T06:45:49.394Z,23.98
2022-11-08T06:46:55.847Z,21.25
2022-11-08T06:48:00.886Z,17.35
2022-11-08T06:49:03.864Z,24.80
2022-11-08T06:50:07.476Z,20.77
2022-11-08T06:51:10.587Z,27.45
2022-11-08T06:52:13.658Z,29.88
2022-11-08T06:53:17.240Z,16.08
2022-11-08T06:54:24.476Z,17.48
2022-11-08T06:55:30.395Z,17.13
2022-11-08T06:56:35.394Z,18.77
2022-11-08T06:57:38.421Z,18.80
2022-11-08T06:58:41.545Z,18.67
2022-11-08T06:59:44.562Z,17.50
2022-11-08T07:00:47.578Z,18.80
2022-11-08T07:01:50.773Z,15.68
2022-11-08T07:02:58.196Z,14.05
2022-11-08T07:04:01.233Z,17.88
2022-11-08T07:05:04.543Z,17.48
2022-11-08T07:06:08.298Z,19.98
2022-11-08T07:07:11.500Z,15.63
2022-11-08T07:08:15.384Z,14.40
2022-11-08T07:09:20.177Z,20.88
2022-11-08T07:10:26.173Z,22.80
2022-11-08T07:11:29.333Z,20.17
2022-11-08T07:12:32.436Z,19.05
2022-11-08T07:13:35.664Z,16.55
2022-11-08T07:14:38.914Z,20.48
2022-11-08T07:15:42.253Z,15.02
2022-11-08T07:16:45.353Z,18.45
2022-11-08T07:17:48.351Z,26.52
2022-11-08T07:18:51.461Z,19.75
2022-11-08T07:19:54.515Z,23.52
2022-11-08T07:21:02.097Z,19.85
2022-11-08T07:22:05.131Z,16.63
2022-11-08T07:23:09.938Z,16.45
2022-11-08T07:24:13.116Z,15.75
2022-11-08T07:25:16.335Z,14.73
2022-11-08T07:26:21.897Z,25.70
2022-11-08T07:27:25.074Z,25.35
2022-11-08T07:28:28.456Z,26.00
2022-11-08T07:29:31.505Z,22.52
2022-11-08T07:30:35.880Z,22.48
2022-11-08T07:31:38.997Z,16.00
2022-11-08T07:32:42.089Z,19.70
2022-11-08T07:33:45.204Z,21.83
2022-11-08T07:34:48.214Z,13.75
2022-11-08T07:35:51.327Z,24.52
2022-11-08T07:36:54.360Z,19.02
2022-11-08T07:37:57.636Z,19.80
2022-11-08T07:39:06.301Z,17.58
2022-11-08T07:40:11.017Z,18.35
2022-11-08T07:41:14.329Z,18.50
2022-11-08T07:42:17.502Z,26.17
2022-11-08T07:43:22.220Z,21.20
2022-11-08T07:44:25.242Z,21.02
2022-11-08T07:45:28.587Z,16.27
2022-11-08T07:46:31.634Z,21.90
2022-11-08T07:47:35.065Z,19.13
2022-11-08T07:48:38.263Z,15.45
2022-11-08T07:49:41.655Z,15.50
2022-11-08T07:50:46.843Z,16.50
2022-11-08T07:51:49.998Z,13.68
2022-11-08T07:52:53.066Z,18.10
2022-11-08T07:53:59.132Z,14.85
2022-11-08T07:55:06.296Z,21.80
2022-11-08T07:56:09.375Z,20.15
2022-11-08T07:57:12.461Z,19.52
2022-11-08T07:58:16.859Z,19.73
2022-11-08T07:59:19.910Z,16.05
2022-11-08T08:00:23.016Z,13.60
2022-11-08T08:01:26.494Z,15.07
2022-11-08T08:02:29.782Z,11.52
2022-11-08T08:03:35.200Z,12.90
2022-11-08T08:04:38.616Z,13.77
2022-11-08T08:05:44.964Z,13.90
2022-11-08T08:06:48.026Z,17.52
2022-11-08T08:07:51.060Z,13.48
2022-11-08T08:08:54.188Z,19.65
2022-11-08T08:09:57.447Z,16.63
2022-11-08T08:11:01.522Z,15.60
2022-11-08T08:12:05.364Z,13.48
2022-11-08T08:13:09.199Z,18.92
2022-11-08T08:14:12.359Z,16.83
2022-11-08T08:15:15.692Z,23.27
2022-11-08T08:16:18.711Z,14.23
2022-11-08T08:17:21.716Z,15.93
2022-11-08T08:18:24.702Z,15.05
2022-11-08T08:19:27.963Z,15.38
2022-11-08T08:20:32.434Z,17.23
2022-11-08T08:21:35.424Z,13.38
2022-11-08T08:22:52.863Z,16.92
2022-11-08T08:23:55.942Z,13.45
2022-11-08T08:25:02.918Z,14.40
2022-11-08T08:26:06.597Z,16.13
2022-11-08T08:27:11.264Z,9.55
2022-11-08T08:28:14.379Z,16.70
2022-11-08T08:29:17.347Z,12.07
2022-11-08T08:30:21.455Z,10.43
2022-11-08T08:31:24.496Z,10.98
2022-11-08T08:32:31.367Z,10.23
2022-11-08T08:33:35.018Z,9.65
2022-11-08T08:34:37.983Z,10.73
2022-11-08T08:35:43.922Z,11.27
2022-11-08T08:36:47.011Z,7.38
2022-11-08T08:37:50.004Z,8.52
2022-11-08T08:38:52.970Z,11.60
2022-11-08T08:39:55.933Z,14.77
2022-11-08T08:41:00.238Z,10.75
2022-11-08T08:42:03.307Z,14.55
2022-11-08T08:43:06.849Z,11.75
2022-11-08T08:44:11.133Z,9.57
2022-11-08T08:45:15.203Z,9.23
2022-11-08T08:46:18.464Z,10.95
2022-11-08T08:47:21.453Z,13.25
2022-11-08T08:48:24.846Z,14.82
2022-11-08T08:49:27.785Z,14.75
2022-11-08T08:50:32.730Z,10.20
2022-11-08T08:51:35.786Z,23.27
2022-11-08T08:52:38.796Z,13.95
2022-11-08T08:53:41.937Z,11.82
2022-11-08T08:54:45.925Z,9.65
2022-11-08T08:55:52.346Z,11.32
2022-11-08T08:56:55.338Z,9.55
2022-11-08T08:57:58.672Z,8.20
2022-11-08T09:01:48.098Z,9.55
2022-11-08T09:02:51.138Z,9.73
2022-11-08T09:03:54.121Z,7.72
2022-11-08T09:04:57.207Z,11.90
2022-11-08T09:06:01.449Z,8.77
2022-11-08T09:07:05.247Z,14.18
2022-11-08T09:08:08.433Z,9.25
2022-11-08T09:09:11.468Z,14.15
2022-11-08T09:10:14.486Z,13.55
2022-11-08T09:11:17.547Z,8.90
2022-11-08T09:12:20.632Z,10.27
2022-11-08T09:13:26.272Z,9.85
2022-11-08T09:14:29.544Z,7.82
2022-11-08T09:15:33.225Z,8.30
2022-11-08T09:16:36.469Z,8.55
2022-11-08T09:17:39.468Z,6.78
2022-11-08T09:18:42.573Z,8.57
2022-11-08T09:19:46.397Z,8.35
2022-11-08T09:20:49.624Z,7.78
2022-11-08T09:21:52.910Z,7.03
2022-11-08T09:22:56.012Z,8.43
2022-11-08T09:23:59.068Z,7.38
2022-11-08T09:25:02.234Z,7.95
2022-11-08T09:26:06.590Z,10.88
2022-11-08T09:27:09.970Z,7.75
2022-11-08T09:28:13.004Z,8.90
2022-11-08T09:29:16.082Z,7.38
2022-11-08T09:30:19.190Z,11.60
2022-11-08T09:31:22.602Z,8.60
2022-11-08T09:32:39.675Z,10.63
2022-11-08T09:33:51.578Z,11.75
2022-11-08T09:34:56.878Z,6.32
2022-11-08T09:36:02.038Z,7.28
2022-11-08T09:37:05.024Z,7.28
2022-11-08T09:38:08.231Z,10.93
2022-11-08T09:39:11.555Z,8.15
2022-11-08T09:40:21.815Z,7.53
2022-11-08T09:42:40.950Z,13.85
2022-11-08T09:44:37.364Z,12.93
2022-11-08T09:45:49.368Z,9.68
2022-11-08T09:47:03.567Z,8.18
2022-11-08T09:48:17.095Z,12.43
2022-11-08T09:49:43.540Z,14.32
2022-11-08T09:50:47.024Z,10.82
2022-11-08T09:51:50.862Z,8.43
2022-11-08T09:53:36.082Z,18.23
2022-11-08T09:54:45.735Z,9.93
2022-11-08T09:56:04.808Z,15.48
2022-11-08T09:57:27.610Z,8.10
2022-11-08T09:59:01.855Z,6.65
2022-11-08T10:00:07.303Z,9.18
2022-11-08T10:01:14.487Z,7.85
2022-11-08T10:02:21.814Z,10.40
2022-11-08T10:03:26.211Z,9.77
2022-11-08T10:04:33.235Z,5.22
2022-11-08T10:05:48.311Z,12.88
2022-11-08T10:07:31.696Z,10.07
2022-11-08T10:08:49.569Z,12.40
2022-11-08T10:10:16.394Z,8.35
2022-11-08T10:11:40.615Z,10.27
2022-11-08T10:13:30.062Z,10.38
2022-11-08T10:14:52.579Z,12.98
2022-11-08T10:16:26.526Z,7.53
2022-11-08T10:18:14.889Z,9.52
2022-11-08T10:20:06.927Z,8.50
2022-11-08T10:22:00.604Z,11.40
2022-11-08T10:23:25.361Z,9.75
2022-11-08T10:25:01.855Z,6.40
2022-11-08T10:26:15.145Z,12.02
2022-11-08T10:27:37.159Z,9.32
2022-11-08T10:28:50.123Z,9.73
2022-11-08T10:30:00.416Z,8.25
2022-11-08T10:31:04.251Z,10.80
2022-11-08T10:32:21.736Z,8.32
2022-11-08T10:33:42.770Z,12.60
2022-11-08T10:35:26.316Z,6.28
2022-11-08T10:36:42.447Z,7.15
2022-11-08T10:37:47.366Z,10.70
2022-11-08T10:39:09.007Z,8.35
2022-11-08T10:40:24.127Z,17.15
2022-11-08T10:41:58.345Z,7.28
2022-11-08T10:43:36.297Z,11.35
2022-11-08T10:44:41.180Z,9.65
2022-11-08T10:45:44.269Z,7.65
2022-11-08T10:46:56.197Z,7.72
2022-11-08T10:47:59.339Z,8.50
2022-11-08T10:49:33.676Z,5.70
2022-11-08T10:50:53.219Z,6.68
2022-11-08T10:52:22.075Z,9.73
2022-11-08T10:53:29.124Z,8.30
2022-11-08T10:54:43.791Z,7.15
2022-11-08T10:55:58.234Z,8.63
2022-11-08T10:57:01.199Z,15.38
2022-11-08T10:58:24.986Z,6.85
2022-11-08T10:59:32.884Z,8.50
2022-11-08T11:00:36.245Z,8.38
2022-11-08T11:01:50.107Z,8.45
2022-11-08T11:03:06.248Z,7.82
2022-11-08T11:04:31.904Z,9.30
2022-11-08T11:05:56.154Z,6.10
2022-11-08T11:07:35.134Z,7.63
2022-11-08T11:08:54.723Z,7.40
2022-11-08T11:09:58.248Z,6.03
2022-11-08T11:11:41.862Z,10.75
2022-11-08T11:13:01.202Z,6.22
2022-11-08T11:14:23.100Z,7.97
2022-11-08T11:15:36.288Z,5.45
2022-11-08T11:16:56.438Z,8.02
2022-11-08T11:17:59.518Z,7.57
2022-11-08T11:19:05.014Z,7.63
2022-11-08T11:20:22.328Z,6.25
2022-11-08T11:21:25.544Z,5.95
2022-11-08T11:22:33.001Z,10.23
2022-11-08T11:23:46.353Z,6.47
2022-11-08T11:24:53.089Z,4.95
2022-11-08T11:25:56.259Z,5.47
2022-11-08T11:27:07.412Z,12.40
2022-11-08T11:28:14.316Z,5.07
2022-11-08T11:29:28.639Z,9.45
2022-11-08T11:30:34.896Z,6.80
2022-11-08T11:31:44.546Z,4.72
2022-11-08T11:33:11.771Z,7.55
2022-11-08T11:34:17.582Z,7.50
2022-11-08T11:35:21.400Z,10.57
2022-11-08T11:36:30.024Z,10.27
2022-11-08T11:37:48.772Z,10.32
2022-11-08T11:39:12.136Z,5.07
2022-11-08T11:40:47.731Z,5.90
2022-11-08T11:42:31.178Z,12.15
2022-11-08T11:43:43.111Z,5.00
2022-11-08T11:45:14.245Z,9.07
2022-11-08T11:46:19.967Z,8.90
2022-11-08T11:47:58.201Z,5.75
2022-11-08T11:49:04.610Z,22.65
2022-11-08T11:50:25.191Z,14.27
2022-11-08T11:51:31.017Z,9.05
2022-11-08T11:52:36.104Z,8.82
2022-11-08T11:53:41.736Z,7.25
2022-11-08T11:54:50.154Z,5.60
2022-11-08T11:56:10.900Z,10.82
2022-11-08T11:59:14.321Z,6.38
2022-11-08T12:00:17.638Z,8.03
2022-11-08T12:01:58.162Z,13.57
2022-11-08T12:03:31.140Z,8.23
2022-11-08T12:04:59.903Z,10.95
2022-11-08T12:06:24.225Z,6.35
2022-11-08T12:07:34.692Z,9.55
2022-11-08T12:09:15.743Z,7.93
2022-11-08T12:11:59.458Z,12.07
2022-11-08T12:13:33.744Z,6.80
2022-11-08T12:15:07.022Z,5.20
2022-11-08T12:16:40.192Z,7.68
2022-11-08T12:17:54.493Z,5.90
2022-11-08T12:19:53.788Z,8.18
2022-11-08T12:21:21.425Z,13.10
2022-11-08T12:22:59.878Z,7.00
2022-11-08T12:24:35.950Z,5.90
2022-11-08T12:26:08.974Z,9.40
2022-11-08T12:27:55.933Z,7.43
2022-11-08T12:29:27.357Z,8.82
2022-11-08T12:30:53.336Z,8.68
2022-11-08T12:32:22.489Z,4.82
2022-11-08T12:33:58.191Z,7.75
2022-11-08T12:35:07.405Z,6.97
2022-11-08T12:36:26.664Z,6.07
2022-11-08T12:38:03.761Z,5.55
2022-11-08T12:39:45.585Z,6.45
2022-11-08T12:41:12.041Z,4.55
2022-11-08T12:43:04.852Z,6.60
2022-11-08T12:44:41.481Z,10.00
2022-11-08T12:46:18.636Z,7.65
2022-11-08T12:47:43.221Z,10.10
2022-11-08T12:49:06.204Z,50.50
2022-11-08T12:50:40.948Z,91.57
2022-11-08T12:52:22.954Z,31.17
2022-11-08T12:54:25.744Z,14.02
2022-11-08T12:55:42.077Z,41.38
2022-11-08T12:56:48.389Z,50.85
2022-11-08T12:57:53.801Z,25.02
2022-11-08T12:58:57.420Z,33.60
2022-11-08T13:00:18.267Z,35.88
2022-11-08T13:02:31.824Z,28.88
2022-11-08T13:03:46.668Z,39.25
2022-11-08T13:05:22.397Z,22.63
2022-11-08T13:06:45.355Z,20.00
2022-11-08T13:08:13.252Z,15.27
2022-11-08T13:09:35.342Z,7.57
2022-11-08T13:11:01.088Z,8.38
2022-11-08T13:12:21.921Z,17.50
2022-11-08T13:14:46.720Z,16.48
2022-11-08T13:16:18.007Z,9.23
2022-11-08T13:17:26.753Z,18.38
2022-11-08T13:18:35.833Z,16.40
2022-11-08T13:19:47.908Z,11.77
2022-11-08T13:20:51.819Z,13.85
2022-11-08T13:21:56.059Z,19.52
2022-11-08T13:23:00.791Z,9.82
2022-11-08T13:24:30.437Z,19.80
2022-11-08T13:25:34.817Z,27.92
2022-11-08T13:26:42.652Z,10.73
2022-11-08T13:27:48.427Z,11.88
2022-11-08T13:28:53.317Z,10.05
2022-11-08T13:30:08.561Z,9.63
2022-11-08T13:31:37.823Z,8.70
2022-11-08T13:32:43.577Z,6.97
2022-11-08T13:34:16.833Z,9.10
2022-11-08T13:36:04.397Z,25.10
2022-11-08T13:37:33.728Z,15.70
2022-11-08T13:39:08.335Z,10.70
2022-11-08T13:40:26.370Z,15.38
2022-11-08T13:41:29.425Z,10.45
2022-11-08T13:42:50.457Z,11.52
2022-11-08T13:43:58.641Z,8.05
2022-11-08T13:45:34.911Z,9.07
2022-11-08T13:46:46.389Z,4.53
2022-11-08T13:47:53.511Z,7.88
2022-11-08T13:49:03.488Z,8.77
2022-11-08T13:50:32.034Z,6.75
2022-11-08T13:51:39.801Z,8.05
2022-11-08T13:53:01.626Z,8.82
2022-11-08T13:54:22.726Z,10.82
2022-11-08T13:56:07.167Z,14.52
2022-11-08T13:57:18.596Z,11.10
2022-11-08T13:58:33.308Z,5.40
2022-11-08T13:59:36.308Z,9.20
2022-11-08T14:00:46.548Z,12.30
2022-11-08T14:01:49.567Z,10.85
2022-11-08T14:02:52.629Z,11.18
2022-11-08T14:04:00.033Z,14.75
2022-11-08T14:05:24.882Z,10.18
2022-11-08T14:06:36.267Z,22.27
2022-11-08T14:08:04.584Z,9.88
2022-11-08T14:09:57.421Z,10.25
2022-11-08T14:11:46.011Z,8.85
2022-11-08T14:13:15.107Z,8.80
2022-11-08T14:14:18.177Z,11.63
2022-11-08T14:15:47.082Z,13.50
2022-11-08T14:16:58.774Z,7.75
2022-11-08T14:18:28.005Z,10.48
2022-11-08T14:19:35.857Z,7.85
2022-11-08T14:20:43.291Z,10.27
2022-11-08T14:22:01.827Z,10.32
2022-11-08T14:23:25.689Z,10.60
2022-11-08T14:24:39.968Z,13.98
2022-11-08T14:25:46.593Z,15.13
2022-11-08T14:26:51.217Z,14.45
2022-11-08T14:27:54.605Z,12.75
2022-11-08T14:29:00.542Z,24.35
2022-11-08T14:30:06.674Z,19.00
2022-11-08T14:31:27.428Z,13.50
2022-11-08T14:32:30.455Z,13.60
2022-11-08T14:33:42.668Z,8.95
2022-11-08T14:34:46.356Z,17.75
2022-11-08T14:36:18.329Z,19.98
2022-11-08T14:37:27.754Z,11.50
2022-11-08T14:38:37.842Z,10.82
2022-11-08T14:39:45.667Z,12.63
2022-11-08T14:41:01.963Z,38.08
2022-11-08T14:42:23.420Z,87.65
2022-11-08T14:43:27.628Z,70.25
2022-11-08T14:44:31.359Z,25.50
2022-11-08T14:45:34.403Z,22.52
2022-11-08T14:46:40.074Z,27.88
2022-11-08T14:47:44.376Z,41.50
2022-11-08T14:48:55.858Z,28.60
2022-11-08T14:50:00.710Z,29.55
2022-11-08T14:51:06.367Z,45.60
2022-11-08T14:52:19.310Z,57.17
2022-11-08T14:53:30.229Z,58.95
2022-11-08T14:54:40.610Z,41.90
2022-11-08T14:55:43.771Z,38.72
2022-11-08T14:56:48.231Z,34.13
2022-11-08T14:57:52.345Z,33.22
2022-11-08T14:58:56.132Z,32.45
2022-11-08T15:00:20.123Z,23.80
2022-11-08T15:01:26.749Z,23.20
2022-11-08T15:02:30.105Z,23.23
2022-11-08T15:03:34.045Z,24.42
2022-11-08T15:04:40.595Z,19.77
2022-11-08T15:05:58.004Z,20.80